sensor_id;sensor_type;location;lat;lon;timestamp;pressure;altitude;pressure_sealevel;temperature;humidity
45275;BME280;31019;43.780;25.948;2024-03-02T00:00:25;100836.25;;;6.98;100.00
45275;BME280;31019;43.780;25.948;2024-03-02T00:02:52;100831.31;;;6.95;100.00
45275;BME280;31019;43.780;25.948;2024-03-02T00:05:20;100836.13;;;6.91;100.00
45275;BME280;31019;43.780;25.948;2024-03-02T00:07:54;100846.28;;;7.02;100.00
45275;BME280;31019;43.780;25.948;2024-03-02T00:10:25;100856.69;;;6.81;100.00
45275;BME280;31019;43.780;25.948;2024-03-02T00:12:54;100851.22;;;6.82;100.00
45275;BME280;31019;43.780;25.948;2024-03-02T00:15:42;100847.47;;;6.77;100.00
45275;BME280;31019;43.780;25.948;2024-03-02T00:18:13;100853.47;;;6.71;100.00
45275;BME280;31019;43.780;25.948;2024-03-02T00:20:40;100854.53;;;6.61;100.00
45275;BME280;31019;43.780;25.948;2024-03-02T00:23:09;100854.06;;;6.58;100.00
45275;BME280;31019;43.780;25.948;2024-03-02T00:25:42;100848.94;;;6.56;100.00
45275;BME280;31019;43.780;25.948;2024-03-02T00:28:19;100854.22;;;6.56;100.00
45275;BME280;31019;43.780;25.948;2024-03-02T00:30:55;100842.84;;;6.56;100.00
45275;BME280;31019;43.780;25.948;2024-03-02T00:33:31;100843.66;;;6.79;100.00
45275;BME280;31019;43.780;25.948;2024-03-02T00:35:58;100842.50;;;6.59;100.00
45275;BME280;31019;43.780;25.948;2024-03-02T00:38:27;100843.41;;;6.51;100.00
45275;BME280;31019;43.780;25.948;2024-03-02T00:40:56;100849.72;;;6.42;100.00
45275;BME280;31019;43.780;25.948;2024-03-02T00:43:43;100833.53;;;6.45;100.00
45275;BME280;31019;43.780;25.948;2024-03-02T00:46:16;100826.78;;;6.42;100.00
45275;BME280;31019;43.780;25.948;2024-03-02T00:48:51;100830.78;;;6.38;100.00
45275;BME280;31019;43.780;25.948;2024-03-02T00:51:20;100826.00;;;6.80;100.00
45275;BME280;31019;43.780;25.948;2024-03-02T00:53:49;100820.69;;;6.42;100.00
45275;BME280;31019;43.780;25.948;2024-03-02T00:56:16;100826.38;;;6.54;100.00
45275;BME280;31019;43.780;25.948;2024-03-02T00:58:43;100831.59;;;6.39;100.00
45275;BME280;31019;43.780;25.948;2024-03-02T01:01:10;100821.63;;;6.49;100.00
45275;BME280;31019;43.780;25.948;2024-03-02T01:03:36;100813.75;;;6.41;100.00
45275;BME280;31019;43.780;25.948;2024-03-02T01:06:04;100818.06;;;6.42;100.00
45275;BME280;31019;43.780;25.948;2024-03-02T01:08:34;100816.91;;;6.45;100.00
45275;BME280;31019;43.780;25.948;2024-03-02T01:11:03;100808.06;;;6.52;100.00
45275;BME280;31019;43.780;25.948;2024-03-02T01:13:30;100801.69;;;6.47;100.00
45275;BME280;31019;43.780;25.948;2024-03-02T01:15:57;100807.25;;;6.52;100.00
45275;BME280;31019;43.780;25.948;2024-03-02T01:18:25;100805.63;;;6.51;100.00
45275;BME280;31019;43.780;25.948;2024-03-02T01:20:52;100810.06;;;6.50;100.00
45275;BME280;31019;43.780;25.948;2024-03-02T01:23:21;100797.47;;;6.37;100.00
45275;BME280;31019;43.780;25.948;2024-03-02T01:25:49;100801.47;;;6.33;100.00
45275;BME280;31019;43.780;25.948;2024-03-02T01:28:17;100797.06;;;6.26;100.00
45275;BME280;31019;43.780;25.948;2024-03-02T01:30:47;100801.00;;;6.30;100.00
45275;BME280;31019;43.780;25.948;2024-03-02T01:33:14;100797.88;;;6.26;100.00
45275;BME280;31019;43.780;25.948;2024-03-02T01:35:41;100797.25;;;6.24;100.00
45275;BME280;31019;43.780;25.948;2024-03-02T01:38:08;100789.50;;;6.23;100.00
45275;BME280;31019;43.780;25.948;2024-03-02T01:40:36;100790.31;;;6.23;100.00
45275;BME280;31019;43.780;25.948;2024-03-02T01:43:04;100791.97;;;6.24;100.00
45275;BME280;31019;43.780;25.948;2024-03-02T01:45:33;100789.25;;;6.32;100.00
45275;BME280;31019;43.780;25.948;2024-03-02T01:48:00;100787.75;;;6.15;100.00
45275;BME280;31019;43.780;25.948;2024-03-02T01:50:29;100779.88;;;6.07;100.00
45275;BME280;31019;43.780;25.948;2024-03-02T01:52:56;100798.53;;;6.05;100.00
45275;BME280;31019;43.780;25.948;2024-03-02T01:55:23;100787.66;;;6.00;100.00
45275;BME280;31019;43.780;25.948;2024-03-02T01:57:51;100783.72;;;6.27;100.00
45275;BME280;31019;43.780;25.948;2024-03-02T02:00:20;100786.84;;;6.00;100.00
45275;BME280;31019;43.780;25.948;2024-03-02T02:02:49;100778.25;;;6.06;100.00
45275;BME280;31019;43.780;25.948;2024-03-02T02:05:17;100776.53;;;6.13;100.00
45275;BME280;31019;43.780;25.948;2024-03-02T02:07:45;100786.72;;;5.93;100.00
45275;BME280;31019;43.780;25.948;2024-03-02T02:10:13;100779.47;;;5.87;100.00
45275;BME280;31019;43.780;25.948;2024-03-02T02:12:41;100778.72;;;6.09;100.00
45275;BME280;31019;43.780;25.948;2024-03-02T02:15:26;100773.25;;;6.11;100.00
45275;BME280;31019;43.780;25.948;2024-03-02T02:17:55;100771.03;;;5.91;100.00
45275;BME280;31019;43.780;25.948;2024-03-02T02:20:23;100772.56;;;5.94;100.00
45275;BME280;31019;43.780;25.948;2024-03-02T02:22:58;100778.31;;;6.21;100.00
45275;BME280;31019;43.780;25.948;2024-03-02T02:25:25;100778.53;;;6.11;100.00
45275;BME280;31019;43.780;25.948;2024-03-02T02:27:52;100781.84;;;6.05;100.00
45275;BME280;31019;43.780;25.948;2024-03-02T02:30:20;100773.59;;;6.08;100.00
45275;BME280;31019;43.780;25.948;2024-03-02T02:32:48;100776.59;;;6.28;100.00
45275;BME280;31019;43.780;25.948;2024-03-02T02:35:15;100774.31;;;6.02;100.00
45275;BME280;31019;43.780;25.948;2024-03-02T02:37:42;100771.66;;;6.02;100.00
45275;BME280;31019;43.780;25.948;2024-03-02T02:40:12;100784.03;;;6.01;100.00
45275;BME280;31019;43.780;25.948;2024-03-02T02:42:39;100781.22;;;6.03;100.00
45275;BME280;31019;43.780;25.948;2024-03-02T02:45:06;100772.19;;;6.20;100.00
45275;BME280;31019;43.780;25.948;2024-03-02T02:47:33;100768.38;;;6.23;100.00
45275;BME280;31019;43.780;25.948;2024-03-02T02:50:01;100771.50;;;6.26;100.00
45275;BME280;31019;43.780;25.948;2024-03-02T02:52:32;100771.50;;;6.26;100.00
45275;BME280;31019;43.780;25.948;2024-03-02T02:55:02;100768.50;;;6.29;100.00
45275;BME280;31019;43.780;25.948;2024-03-02T02:57:31;100776.38;;;6.75;100.00
45275;BME280;31019;43.780;25.948;2024-03-02T03:00:01;100781.84;;;6.36;100.00
45275;BME280;31019;43.780;25.948;2024-03-02T03:02:31;100786.03;;;6.22;100.00
45275;BME280;31019;43.780;25.948;2024-03-02T03:04:57;100787.66;;;6.23;100.00
45275;BME280;31019;43.780;25.948;2024-03-02T03:07:24;100784.97;;;6.31;100.00
45275;BME280;31019;43.780;25.948;2024-03-02T03:09:51;100783.00;;;6.33;100.00
45275;BME280;31019;43.780;25.948;2024-03-02T03:12:19;100782.53;;;6.30;100.00
45275;BME280;31019;43.780;25.948;2024-03-02T03:14:47;100779.41;;;6.49;100.00
45275;BME280;31019;43.780;25.948;2024-03-02T03:17:14;100782.66;;;6.36;100.00
45275;BME280;31019;43.780;25.948;2024-03-02T03:19:41;100784.97;;;6.31;100.00
45275;BME280;31019;43.780;25.948;2024-03-02T03:22:07;100782.69;;;6.51;100.00
45275;BME280;31019;43.780;25.948;2024-03-02T03:24:34;100782.81;;;6.35;100.00
45275;BME280;31019;43.780;25.948;2024-03-02T03:27:02;100782.94;;;6.79;100.00
45275;BME280;31019;43.780;25.948;2024-03-02T03:29:29;100779.81;;;6.61;100.00
45275;BME280;31019;43.780;25.948;2024-03-02T03:31:57;100789.09;;;6.34;100.00
45275;BME280;31019;43.780;25.948;2024-03-02T03:34:24;100777.63;;;6.27;100.00
45275;BME280;31019;43.780;25.948;2024-03-02T03:36:51;100784.69;;;6.26;100.00
45275;BME280;31019;43.780;25.948;2024-03-02T03:39:17;100782.81;;;6.35;100.00
45275;BME280;31019;43.780;25.948;2024-03-02T03:41:44;100776.31;;;6.23;100.00
45275;BME280;31019;43.780;25.948;2024-03-02T03:44:11;100784.22;;;6.23;100.00
45275;BME280;31019;43.780;25.948;2024-03-02T03:46:38;100788.88;;;6.21;100.00
45275;BME280;31019;43.780;25.948;2024-03-02T03:49:06;100789.50;;;6.23;100.00
45275;BME280;31019;43.780;25.948;2024-03-02T03:51:33;100795.94;;;6.20;100.00
45275;BME280;31019;43.780;25.948;2024-03-02T03:54:00;100798.72;;;6.27;100.00
45275;BME280;31019;43.780;25.948;2024-03-02T03:56:27;100794.78;;;6.23;100.00
45275;BME280;31019;43.780;25.948;2024-03-02T03:58:54;100803.28;;;6.33;100.00
45275;BME280;31019;43.780;25.948;2024-03-02T04:01:23;100796.91;;;6.27;100.00
45275;BME280;31019;43.780;25.948;2024-03-02T04:03:50;100800.03;;;6.23;100.00
45275;BME280;31019;43.780;25.948;2024-03-02T04:06:18;100805.03;;;6.40;100.00
45275;BME280;31019;43.780;25.948;2024-03-02T04:08:45;100800.41;;;6.19;100.00
45275;BME280;31019;43.780;25.948;2024-03-02T04:11:12;100796.19;;;6.33;100.00
45275;BME280;31019;43.780;25.948;2024-03-02T04:13:39;100800.59;;;6.18;100.00
45275;BME280;31019;43.780;25.948;2024-03-02T04:16:06;100796.28;;;6.17;100.00
45275;BME280;31019;43.780;25.948;2024-03-02T04:18:33;100796.78;;;6.21;100.00
45275;BME280;31019;43.780;25.948;2024-03-02T04:21:00;100797.94;;;6.18;100.00
45275;BME280;31019;43.780;25.948;2024-03-02T04:23:28;100801.41;;;6.18;100.00
45275;BME280;31019;43.780;25.948;2024-03-02T04:25:55;100806.91;;;6.09;100.00
45275;BME280;31019;43.780;25.948;2024-03-02T04:28:22;100810.88;;;6.05;100.00
45275;BME280;31019;43.780;25.948;2024-03-02T04:30:49;100815.16;;;6.06;100.00
45275;BME280;31019;43.780;25.948;2024-03-02T04:33:17;100807.06;;;6.07;100.00
45275;BME280;31019;43.780;25.948;2024-03-02T04:35:44;100805.66;;;6.19;100.00
45275;BME280;31019;43.780;25.948;2024-03-02T04:38:12;100820.53;;;6.21;100.00
45275;BME280;31019;43.780;25.948;2024-03-02T04:40:40;100811.06;;;6.26;100.00
45275;BME280;31019;43.780;25.948;2024-03-02T04:43:07;100803.16;;;6.26;100.00
45275;BME280;31019;43.780;25.948;2024-03-02T04:45:37;100807.38;;;6.35;100.00
45275;BME280;31019;43.780;25.948;2024-03-02T04:48:05;100799.88;;;6.47;100.00
45275;BME280;31019;43.780;25.948;2024-03-02T04:50:32;100795.53;;;6.54;100.00
45275;BME280;31019;43.780;25.948;2024-03-02T04:52:59;100793.16;;;6.59;100.00
45275;BME280;31019;43.780;25.948;2024-03-02T04:55:26;100803.41;;;6.39;100.00
45275;BME280;31019;43.780;25.948;2024-03-02T04:58:23;100822.22;;;6.36;100.00
45275;BME280;31019;43.780;25.948;2024-03-02T05:00:50;100818.94;;;6.34;100.00
45275;BME280;31019;43.780;25.948;2024-03-02T05:03:17;100803.09;;;6.57;100.00
45275;BME280;31019;43.780;25.948;2024-03-02T05:05:44;100804.41;;;6.76;100.00
45275;BME280;31019;43.780;25.948;2024-03-02T05:08:11;100808.59;;;7.08;100.00
45275;BME280;31019;43.780;25.948;2024-03-02T05:10:37;100814.31;;;6.74;100.00
45275;BME280;31019;43.780;25.948;2024-03-02T05:13:04;100813.91;;;6.62;100.00
45275;BME280;31019;43.780;25.948;2024-03-02T05:15:32;100806.91;;;6.78;100.00
45275;BME280;31019;43.780;25.948;2024-03-02T05:17:59;100816.97;;;6.74;100.00
45275;BME280;31019;43.780;25.948;2024-03-02T05:20:28;100819.03;;;7.17;100.00
45275;BME280;31019;43.780;25.948;2024-03-02T05:22:55;100815.75;;;7.00;100.00
45275;BME280;31019;43.780;25.948;2024-03-02T05:25:22;100823.88;;;7.13;100.00
45275;BME280;31019;43.780;25.948;2024-03-02T05:27:49;100831.63;;;6.77;100.00
45275;BME280;31019;43.780;25.948;2024-03-02T05:30:16;100827.41;;;6.91;100.00
45275;BME280;31019;43.780;25.948;2024-03-02T05:32:44;100822.03;;;7.14;100.00
45275;BME280;31019;43.780;25.948;2024-03-02T05:35:11;100834.63;;;7.11;100.00
45275;BME280;31019;43.780;25.948;2024-03-02T05:37:38;100820.22;;;6.99;100.00
45275;BME280;31019;43.780;25.948;2024-03-02T05:40:07;100825.78;;;7.04;100.00
45275;BME280;31019;43.780;25.948;2024-03-02T05:42:34;100832.22;;;7.02;100.00
45275;BME280;31019;43.780;25.948;2024-03-02T05:45:01;100837.63;;;7.08;100.00
45275;BME280;31019;43.780;25.948;2024-03-02T05:47:28;100836.78;;;7.08;100.00
45275;BME280;31019;43.780;25.948;2024-03-02T05:49:56;100839.28;;;7.24;100.00
45275;BME280;31019;43.780;25.948;2024-03-02T05:52:23;100822.34;;;7.33;100.00
45275;BME280;31019;43.780;25.948;2024-03-02T05:54:50;100836.47;;;7.41;100.00
45275;BME280;31019;43.780;25.948;2024-03-02T05:57:16;100836.81;;;7.52;100.00
45275;BME280;31019;43.780;25.948;2024-03-02T05:59:58;100818.59;;;7.57;100.00
45275;BME280;31019;43.780;25.948;2024-03-02T06:02:25;100824.91;;;7.56;100.00
45275;BME280;31019;43.780;25.948;2024-03-02T06:04:55;100841.94;;;7.54;100.00
45275;BME280;31019;43.780;25.948;2024-03-02T06:07:23;100837.38;;;7.63;100.00
45275;BME280;31019;43.780;25.948;2024-03-02T06:09:50;100832.41;;;7.89;100.00
45275;BME280;31019;43.780;25.948;2024-03-02T06:12:18;100839.34;;;7.90;100.00
45275;BME280;31019;43.780;25.948;2024-03-02T06:14:45;100821.78;;;7.53;100.00
45275;BME280;31019;43.780;25.948;2024-03-02T06:17:12;100826.09;;;7.54;100.00
45275;BME280;31019;43.780;25.948;2024-03-02T06:19:39;100838.28;;;7.40;100.00
45275;BME280;31019;43.780;25.948;2024-03-02T06:22:07;100832.84;;;7.56;100.00
45275;BME280;31019;43.780;25.948;2024-03-02T06:24:36;100823.13;;;7.78;100.00
45275;BME280;31019;43.780;25.948;2024-03-02T06:27:03;100829.66;;;7.97;100.00
45275;BME280;31019;43.780;25.948;2024-03-02T06:29:32;100816.53;;;7.89;100.00
45275;BME280;31019;43.780;25.948;2024-03-02T06:31:59;100818.66;;;8.15;100.00
45275;BME280;31019;43.780;25.948;2024-03-02T06:34:26;100822.69;;;7.75;100.00
45275;BME280;31019;43.780;25.948;2024-03-02T06:36:53;100826.91;;;7.54;100.00
45275;BME280;31019;43.780;25.948;2024-03-02T06:39:21;100812.38;;;7.80;100.00
45275;BME280;31019;43.780;25.948;2024-03-02T06:41:48;100819.13;;;8.19;100.00
45275;BME280;31019;43.780;25.948;2024-03-02T06:44:15;100836.66;;;7.54;100.00
45275;BME280;31019;43.780;25.948;2024-03-02T06:46:42;100838.38;;;7.62;100.00
45275;BME280;31019;43.780;25.948;2024-03-02T06:49:09;100841.81;;;7.77;100.00
45275;BME280;31019;43.780;25.948;2024-03-02T06:51:36;100843.94;;;7.82;100.00
45275;BME280;31019;43.780;25.948;2024-03-02T06:54:03;100860.59;;;7.82;100.00
45275;BME280;31019;43.780;25.948;2024-03-02T06:56:39;100869.06;;;7.77;100.00
45275;BME280;31019;43.780;25.948;2024-03-02T06:59:06;100867.44;;;7.76;100.00
45275;BME280;31019;43.780;25.948;2024-03-02T07:01:33;100858.78;;;7.83;100.00
45275;BME280;31019;43.780;25.948;2024-03-02T07:04:00;100858.03;;;7.89;100.00
45275;BME280;31019;43.780;25.948;2024-03-02T07:06:26;100853.41;;;7.91;100.00
45275;BME280;31019;43.780;25.948;2024-03-02T07:08:53;100852.00;;;7.95;100.00
45275;BME280;31019;43.780;25.948;2024-03-02T07:11:20;100849.38;;;7.95;100.00
45275;BME280;31019;43.780;25.948;2024-03-02T07:13:48;100846.19;;;7.99;100.00
45275;BME280;31019;43.780;25.948;2024-03-02T07:16:15;100845.06;;;8.09;100.00
45275;BME280;31019;43.780;25.948;2024-03-02T07:18:54;100824.59;;;8.17;100.00
45275;BME280;31019;43.780;25.948;2024-03-02T07:21:22;100818.84;;;8.14;100.00
45275;BME280;31019;43.780;25.948;2024-03-02T07:23:49;100833.66;;;8.44;100.00
45275;BME280;31019;43.780;25.948;2024-03-02T07:26:16;100827.75;;;8.27;100.00
45275;BME280;31019;43.780;25.948;2024-03-02T07:28:45;100825.75;;;8.30;100.00
45275;BME280;31019;43.780;25.948;2024-03-02T07:31:14;100829.16;;;8.23;100.00
45275;BME280;31019;43.780;25.948;2024-03-02T07:33:44;100824.78;;;8.37;100.00
45275;BME280;31019;43.780;25.948;2024-03-02T07:36:12;100816.78;;;8.45;100.00
45275;BME280;31019;43.780;25.948;2024-03-02T07:38:39;100819.91;;;8.56;100.00
45275;BME280;31019;43.780;25.948;2024-03-02T07:41:07;100819.84;;;8.49;100.00
45275;BME280;31019;43.780;25.948;2024-03-02T07:43:34;100821.03;;;8.46;100.00
45275;BME280;31019;43.780;25.948;2024-03-02T07:46:01;100811.50;;;9.30;100.00
45275;BME280;31019;43.780;25.948;2024-03-02T07:48:30;100816.94;;;9.22;100.00
45275;BME280;31019;43.780;25.948;2024-03-02T07:50:57;100813.97;;;8.75;100.00
45275;BME280;31019;43.780;25.948;2024-03-02T07:53:25;100812.97;;;8.76;100.00
45275;BME280;31019;43.780;25.948;2024-03-02T07:55:59;100822.34;;;8.79;100.00
45275;BME280;31019;43.780;25.948;2024-03-02T07:58:28;100814.41;;;8.79;100.00
45275;BME280;31019;43.780;25.948;2024-03-02T08:00:55;100813.25;;;8.88;100.00
45275;BME280;31019;43.780;25.948;2024-03-02T08:03:22;100805.19;;;8.96;100.00
45275;BME280;31019;43.780;25.948;2024-03-02T08:05:51;100815.69;;;8.89;100.00
45275;BME280;31019;43.780;25.948;2024-03-02T08:08:19;100817.16;;;8.92;100.00
45275;BME280;31019;43.780;25.948;2024-03-02T08:10:46;100823.75;;;9.03;100.00
45275;BME280;31019;43.780;25.948;2024-03-02T08:13:17;100820.63;;;9.21;100.00
45275;BME280;31019;43.780;25.948;2024-03-02T08:15:44;100820.19;;;9.17;100.00
45275;BME280;31019;43.780;25.948;2024-03-02T08:18:12;100823.56;;;9.32;100.00
45275;BME280;31019;43.780;25.948;2024-03-02T08:20:46;100820.19;;;9.52;100.00
45275;BME280;31019;43.780;25.948;2024-03-02T08:23:14;100819.69;;;9.76;100.00
45275;BME280;31019;43.780;25.948;2024-03-02T08:25:42;100817.28;;;9.47;100.00
45275;BME280;31019;43.780;25.948;2024-03-02T08:28:09;100817.78;;;9.57;100.00
45275;BME280;31019;43.780;25.948;2024-03-02T08:30:35;100804.31;;;9.58;100.00
45275;BME280;31019;43.780;25.948;2024-03-02T08:33:03;100806.41;;;9.76;100.00
45275;BME280;31019;43.780;25.948;2024-03-02T08:35:31;100806.66;;;9.81;100.00
45275;BME280;31019;43.780;25.948;2024-03-02T08:38:01;100801.59;;;9.93;100.00
45275;BME280;31019;43.780;25.948;2024-03-02T08:40:29;100800.56;;;9.88;100.00
45275;BME280;31019;43.780;25.948;2024-03-02T08:42:56;100803.47;;;10.06;100.00
45275;BME280;31019;43.780;25.948;2024-03-02T08:45:23;100806.81;;;10.28;100.00
45275;BME280;31019;43.780;25.948;2024-03-02T08:47:59;100798.25;;;10.32;100.00
45275;BME280;31019;43.780;25.948;2024-03-02T08:50:26;100801.31;;;10.29;100.00
45275;BME280;31019;43.780;25.948;2024-03-02T08:52:53;100788.84;;;10.43;100.00
45275;BME280;31019;43.780;25.948;2024-03-02T08:55:20;100789.06;;;10.62;100.00
45275;BME280;31019;43.780;25.948;2024-03-02T08:57:48;100788.44;;;10.73;100.00
45275;BME280;31019;43.780;25.948;2024-03-02T09:00:16;100780.69;;;10.71;100.00
45275;BME280;31019;43.780;25.948;2024-03-02T09:02:45;100779.66;;;10.92;100.00
45275;BME280;31019;43.780;25.948;2024-03-02T09:05:12;100787.34;;;11.27;100.00
45275;BME280;31019;43.780;25.948;2024-03-02T09:07:39;100784.47;;;11.35;100.00
45275;BME280;31019;43.780;25.948;2024-03-02T09:10:08;100781.38;;;11.45;100.00
45275;BME280;31019;43.780;25.948;2024-03-02T09:12:36;100781.44;;;11.32;100.00
45275;BME280;31019;43.780;25.948;2024-03-02T09:15:08;100779.16;;;11.35;100.00
45275;BME280;31019;43.780;25.948;2024-03-02T09:17:36;100787.28;;;11.54;100.00
45275;BME280;31019;43.780;25.948;2024-03-02T09:20:04;100784.00;;;11.52;100.00
45275;BME280;31019;43.780;25.948;2024-03-02T09:22:31;100788.47;;;11.58;100.00
45275;BME280;31019;43.780;25.948;2024-03-02T09:24:58;100785.47;;;11.48;100.00
45275;BME280;31019;43.780;25.948;2024-03-02T09:27:25;100798.16;;;11.39;100.00
45275;BME280;31019;43.780;25.948;2024-03-02T09:29:52;100791.50;;;11.75;100.00
45275;BME280;31019;43.780;25.948;2024-03-02T09:32:20;100794.75;;;11.77;100.00
45275;BME280;31019;43.780;25.948;2024-03-02T09:34:56;100795.97;;;12.19;100.00
45275;BME280;31019;43.780;25.948;2024-03-02T09:37:23;100798.25;;;12.15;100.00
45275;BME280;31019;43.780;25.948;2024-03-02T09:39:50;100791.97;;;12.67;100.00
45275;BME280;31019;43.780;25.948;2024-03-02T09:42:19;100783.53;;;12.13;100.00
45275;BME280;31019;43.780;25.948;2024-03-02T09:44:47;100790.03;;;12.49;100.00
45275;BME280;31019;43.780;25.948;2024-03-02T09:47:14;100794.66;;;12.35;100.00
45275;BME280;31019;43.780;25.948;2024-03-02T09:49:42;100792.22;;;12.33;100.00
45275;BME280;31019;43.780;25.948;2024-03-02T09:52:10;100779.88;;;12.64;100.00
45275;BME280;31019;43.780;25.948;2024-03-02T09:54:39;100786.44;;;12.61;100.00
45275;BME280;31019;43.780;25.948;2024-03-02T09:57:12;100786.81;;;12.47;100.00
45275;BME280;31019;43.780;25.948;2024-03-02T09:59:39;100782.84;;;12.56;100.00
45275;BME280;31019;43.780;25.948;2024-03-02T10:02:06;100796.72;;;13.08;100.00
45275;BME280;31019;43.780;25.948;2024-03-02T10:04:33;100790.22;;;12.79;100.00
45275;BME280;31019;43.780;25.948;2024-03-02T10:07:13;100789.22;;;12.98;100.00
45275;BME280;31019;43.780;25.948;2024-03-02T10:09:41;100803.47;;;13.11;100.00
45275;BME280;31019;43.780;25.948;2024-03-02T10:12:10;100796.75;;;12.83;100.00
45275;BME280;31019;43.780;25.948;2024-03-02T10:14:38;100790.75;;;12.88;100.00
45275;BME280;31019;43.780;25.948;2024-03-02T10:17:05;100794.63;;;13.54;100.00
45275;BME280;31019;43.780;25.948;2024-03-02T10:19:33;100782.97;;;13.29;100.00
45275;BME280;31019;43.780;25.948;2024-03-02T10:22:01;100788.56;;;13.77;100.00
45275;BME280;31019;43.780;25.948;2024-03-02T10:24:36;100782.16;;;13.96;100.00
45275;BME280;31019;43.780;25.948;2024-03-02T10:27:07;100781.44;;;13.59;100.00
45275;BME280;31019;43.780;25.948;2024-03-02T10:29:39;100778.91;;;13.45;100.00
45275;BME280;31019;43.780;25.948;2024-03-02T10:32:08;100777.69;;;13.23;100.00
45275;BME280;31019;43.780;25.948;2024-03-02T10:34:50;100775.16;;;13.10;100.00
45275;BME280;31019;43.780;25.948;2024-03-02T10:37:17;100773.97;;;13.05;100.00
45275;BME280;31019;43.780;25.948;2024-03-02T10:39:46;100767.16;;;13.10;100.00
45275;BME280;31019;43.780;25.948;2024-03-02T10:42:14;100777.50;;;12.81;100.00
45275;BME280;31019;43.780;25.948;2024-03-02T10:44:41;100769.69;;;12.79;100.00
45275;BME280;31019;43.780;25.948;2024-03-02T10:47:12;100769.13;;;12.77;100.00
45275;BME280;31019;43.780;25.948;2024-03-02T10:49:41;100762.31;;;13.25;100.00
45275;BME280;31019;43.780;25.948;2024-03-02T10:52:09;100768.34;;;13.69;100.00
45275;BME280;31019;43.780;25.948;2024-03-02T10:54:36;100770.34;;;13.73;100.00
45275;BME280;31019;43.780;25.948;2024-03-02T10:57:07;100758.69;;;13.38;100.00
45275;BME280;31019;43.780;25.948;2024-03-02T10:59:48;100760.59;;;13.31;100.00
45275;BME280;31019;43.780;25.948;2024-03-02T11:02:17;100757.78;;;13.44;100.00
45275;BME280;31019;43.780;25.948;2024-03-02T11:04:47;100753.41;;;13.68;100.00
45275;BME280;31019;43.780;25.948;2024-03-02T11:07:18;100749.06;;;13.97;100.00
45275;BME280;31019;43.780;25.948;2024-03-02T11:09:54;100752.56;;;13.67;100.00
45275;BME280;31019;43.780;25.948;2024-03-02T11:12:29;100746.72;;;13.03;100.00
45275;BME280;31019;43.780;25.948;2024-03-02T11:14:56;100753.53;;;13.18;100.00
45275;BME280;31019;43.780;25.948;2024-03-02T11:17:25;100749.63;;;13.20;100.00
45275;BME280;31019;43.780;25.948;2024-03-02T11:19:53;100749.13;;;12.68;100.00
45275;BME280;31019;43.780;25.948;2024-03-02T11:22:20;100747.06;;;12.89;100.00
45275;BME280;31019;43.780;25.948;2024-03-02T11:24:48;100743.22;;;12.84;100.00
45275;BME280;31019;43.780;25.948;2024-03-02T11:30:50;100740.56;;;13.58;100.00
45275;BME280;31019;43.780;25.948;2024-03-02T11:33:25;100727.91;;;12.80;100.00
45275;BME280;31019;43.780;25.948;2024-03-02T11:35:57;100738.41;;;12.93;100.00
45275;BME280;31019;43.780;25.948;2024-03-02T11:38:28;100733.69;;;12.70;100.00
45275;BME280;31019;43.780;25.948;2024-03-02T11:40:55;100737.41;;;12.69;100.00
45275;BME280;31019;43.780;25.948;2024-03-02T11:43:23;100723.59;;;12.79;100.00
45275;BME280;31019;43.780;25.948;2024-03-02T11:46:00;100725.06;;;12.75;100.00
45275;BME280;31019;43.780;25.948;2024-03-02T11:48:32;100722.25;;;12.45;100.00
45275;BME280;31019;43.780;25.948;2024-03-02T11:51:00;100721.50;;;12.37;100.00
45275;BME280;31019;43.780;25.948;2024-03-02T11:53:28;100725.47;;;12.53;100.00
45275;BME280;31019;43.780;25.948;2024-03-02T11:55:55;100714.91;;;12.40;100.00
45275;BME280;31019;43.780;25.948;2024-03-02T11:58:22;100718.94;;;12.49;100.00
45275;BME280;31019;43.780;25.948;2024-03-02T12:00:52;100712.72;;;12.55;100.00
45275;BME280;31019;43.780;25.948;2024-03-02T12:03:22;100710.56;;;12.46;100.00
45275;BME280;31019;43.780;25.948;2024-03-02T12:05:51;100708.22;;;12.31;100.00
45275;BME280;31019;43.780;25.948;2024-03-02T12:08:19;100718.19;;;12.17;100.00
45275;BME280;31019;43.780;25.948;2024-03-02T12:10:57;100715.09;;;12.20;100.00
45275;BME280;31019;43.780;25.948;2024-03-02T12:13:24;100711.50;;;12.08;100.00
45275;BME280;31019;43.780;25.948;2024-03-02T12:15:56;100713.44;;;12.19;100.00
45275;BME280;31019;43.780;25.948;2024-03-02T12:18:25;100718.72;;;12.26;100.00
45275;BME280;31019;43.780;25.948;2024-03-02T12:20:52;100715.78;;;12.09;100.00
45275;BME280;31019;43.780;25.948;2024-03-02T12:23:22;100714.66;;;12.23;100.00
45275;BME280;31019;43.780;25.948;2024-03-02T12:25:50;100718.69;;;12.32;100.00
45275;BME280;31019;43.780;25.948;2024-03-02T12:28:20;100708.66;;;12.28;100.00
45275;BME280;31019;43.780;25.948;2024-03-02T12:31:15;100706.59;;;12.30;100.00
45275;BME280;31019;43.780;25.948;2024-03-02T12:37:15;100698.59;;;12.55;100.00
45275;BME280;31019;43.780;25.948;2024-03-02T12:39:44;100707.03;;;12.52;100.00
45275;BME280;31019;43.780;25.948;2024-03-02T12:42:11;100724.00;;;12.57;100.00
45275;BME280;31019;43.780;25.948;2024-03-02T12:44:39;100716.00;;;12.57;100.00
45275;BME280;31019;43.780;25.948;2024-03-02T12:47:06;100706.28;;;12.45;100.00
45275;BME280;31019;43.780;25.948;2024-03-02T12:49:35;100705.19;;;12.27;100.00
45275;BME280;31019;43.780;25.948;2024-03-02T12:52:02;100715.19;;;12.32;100.00